Altus Air Force Base
KLTS : rendu visible

Aérodrome :











RETROUVEZ-NOUS SUR...

 
LOGIN :

S'inscrire | Disclaimer

   EN    FR    IT 

 









Légende :    VFR   VFR Marginal   IFR   IFR Intensif   IFR Très Intensif
Visi : 
Plafond : 
>= 8 km
>= 3000ft
5 à 8 km
1000 à 3000 ft
1500m à 5 km
500 à 1000 ft
800 à 1500m
200 à 500 ft
< 800m
< 200 ft
Symboles :   Orages  Brouillard  Fortes neiges  Fortes précipitations  Vent > 20 kt






- Altitude de l'aérodrome : 1382 ft


KLTS - Altus Air Force Base

DERNIER METAR :
  • 150656Z 00000KT 10SM CLR 02/M03 A3042 RMK AO2A SLP305 T00171032 $

METARs EXPIRÉS :
  • 150557Z AUTO 28005KT 3SM -RA CLR 04/M02 A3043 RMK AO2 VIS 2 1/2 RWY35R UPB36E44RAB52 SLP308 P0000 60000 T00371023 10065 21006 401441044 52006 FZRANO $
  • 150456Z 00000KT 10SM CLR 01/M03 A3042 RMK AO2A SLP307 T00111032 $

TAF TAF KLTS
Valide du 15 à 01h jusqu'au 16 à 07h UTC


150100Z 1501/1607 03006KT 9999 SKC QNH3035INS WND VRB04KT AFT 1504
BECMG 1511/1512 VRB04KT 9000 MIBR SKC QNH3039INS
BECMG 1515/1516 18012KT 9999 NSW SKC QNH3022INS TX15/1521Z TNM01/1511Z



MET'MAP, la Météo Aéronautique d'un coup d'oeil ! - Copyright ORBIFLY Décembre 2007 - Disclaimer

ORBIFLY MET'MAP TEAM :

Programmation & Développement : Alexandra Zaïnal
Conception & Développement : Baudouin d'Aumeries
Co-Programmation & Développement : Marc-Olivier Méhu
Soutien technique & logistique : Manuel Goepfert

Contact : metmap@orbifly.com




SOURCES & CREDITS :

   NOAA       Earth
Advisory